Terminal Aerodrome Forecast
Issued by NWS

Home | Current Version | Previous Version | Text Only | Print | Product List | Glossary On
Versions: 1 2 3 4 5 6 7 8 9 10 11 12 13 14 15 16 17 18 19 20 21 22 23 24 25 26 27 28 29 30 31 32 33 34
000
FTUS44 KMOB 291749
TAFBFM
TAF
KBFM 291749Z 2918/3018 11004KT P6SM VCTS BKN027CB
     FM300000 16007KT P6SM SCT250
     FM301200 00000KT P6SM SCT250
     FM301500 15005KT P6SM BKN100=

USA.gov is the U.S. government's official web portal to all federal, state and local government web resources and services.